LGTSLGKF

Guest
Details From LGTS - Thessalonik Makedonia
To LGKF - Kefallinia
Flight Number -
Tags decoded
Created
Modified
Stats Distance 207 nm / 383 km
Max Altitude 0 ft / 0 m
Waypoints 5
Social Downloads 1
Likes 0
Share VATSIM

Download

Looking for another format? Having issues loading an existing format? Contact us
Advertisement - Login to hide

Notes

Requested: LGTS LOPOS UM600 YNN UT352 ASTUS LGKF Unmatched points: UT352 ASTUS

Route

LGTS LOPOS UM600 YNN LGKF

ID Type Via Altitude Latitude Longitude Leg Dist Tot Dist Heading (true) Name
O LGTS APT - 0 ft / 0 m 40.51952˚ 22.97202˚ - 0 nm - Thessalonik Makedonia
LOPOS FIX - 0 ft / 0 m 40.29083˚ 22.50028˚ 25 nm 25 nm 238° / 237° -
PIKOS FIX UM600 (AWY-HI) 0 ft / 0 m 39.96167˚ 21.55000˚ 47 nm 73 nm 246° / 245° -
YNN VOR UM600 (AWY-HI) 0 ft / 0 m 39.70139˚ 20.82000˚ 37 nm 110 nm 245° / 245° IOANNINA VOR-DME
O LGKF APT - 0 ft / 0 m 38.12007˚ 20.50048˚ 96 nm 206 nm 189° / 189° Kefallinia

Altitude Profile

Advertisement - Login to hide

Weather


0- 5 10 15 20 25 30 35+ Temperature / ° C

Clouds and Precipitation
Forecast for 2018-05-24 00:00 UTC. Updated 4 hours ago

Ground ~20,000 ft ~40,000 ft Winds

LGTS

Details ICAO LGTS (SKG)
Name Thessalonik Makedonia
Region Greece
Timezone Europe/Athens (UTC+3.0)
Stats Elevation 22 ft / 7 m (AMSL)
Location 40.519522° 22.972017°
Runways 2
Magnetic Variation 4.667° E

METAR

LGTS 240250Z VRB03KT 9999 FEW025 17/15 Q1014 NOSIG

Decode

TAF

TAF LGTS 232300Z 2400/2424 VRB03KT 9999 SCT030 TEMPO 2400/2418 6000 SHRA FEW020CB BKN025 PROB40 2400/2418 4000 TSRA FEW018CB BKN020

Decode

Departure Runways

ID Width Length Bearing (true) Bearing (mag) Surface Threshold Offset Overrun Length
10 164 ft / 50 m 7,990 ft / 2,435 m 103.95° 99.28° Asphalt 0 ft / 0 m 150 ft / 46 m
16 197 ft / 60 m 7,927 ft / 2,416 m 166.35° 161.68° Asphalt 0 ft / 0 m 200 ft / 61 m
28 164 ft / 50 m 7,990 ft / 2,435 m 283.97° 279.30° Asphalt 0 ft / 0 m 150 ft / 46 m
34 197 ft / 60 m 7,927 ft / 2,416 m 346.36° 341.69° Asphalt 0 ft / 0 m 200 ft / 61 m

LGKF

Details ICAO LGKF (EFL)
Name Kefallinia
Region Greece
Timezone Europe/Athens (UTC+3.0)
Stats Elevation 59 ft / 18 m (AMSL)
Location 38.120069° 20.500480°
Runways 1
Magnetic Variation 4.095° E

METAR

LGKF 240250Z 00000KT 9999 SCT014 SCT070 19/18 Q1014

Decode

TAF

Not found

Destination Runways

ID Width Length Bearing (true) Bearing (mag) Surface Threshold Offset Overrun Length
14 148 ft / 45 m 7,979 ft / 2,432 m 146.39° 142.30° Asphalt 0 ft / 0 m 180 ft / 55 m
32 148 ft / 45 m 7,979 ft / 2,432 m 326.40° 322.31° Asphalt 912 ft / 278 m 100 ft / 30 m